sensor_id;sensor_type;location;lat;lon;timestamp;P1;durP1;ratioP1;P2;durP2;ratioP2
36205;SDS011;22242;48.796;9.930;2023-04-03T00:01:02;4.57;;;3.60;;
36205;SDS011;22242;48.796;9.930;2023-04-03T00:03:30;3.78;;;3.38;;
36205;SDS011;22242;48.796;9.930;2023-04-03T00:05:57;4.03;;;3.63;;
36205;SDS011;22242;48.796;9.930;2023-04-03T00:08:25;5.70;;;3.72;;
36205;SDS011;22242;48.796;9.930;2023-04-03T00:10:53;5.53;;;3.60;;
36205;SDS011;22242;48.796;9.930;2023-04-03T00:13:21;4.90;;;3.40;;
36205;SDS011;22242;48.796;9.930;2023-04-03T00:15:48;4.75;;;3.88;;
36205;SDS011;22242;48.796;9.930;2023-04-03T00:18:15;3.75;;;3.35;;
36205;SDS011;22242;48.796;9.930;2023-04-03T00:20:42;5.95;;;3.60;;
36205;SDS011;22242;48.796;9.930;2023-04-03T00:23:10;6.07;;;3.33;;
36205;SDS011;22242;48.796;9.930;2023-04-03T00:25:36;6.38;;;3.50;;
36205;SDS011;22242;48.796;9.930;2023-04-03T00:28:05;4.10;;;3.53;;
36205;SDS011;22242;48.796;9.930;2023-04-03T00:30:33;5.25;;;3.40;;
36205;SDS011;22242;48.796;9.930;2023-04-03T00:33:00;4.32;;;3.28;;
36205;SDS011;22242;48.796;9.930;2023-04-03T00:35:27;3.28;;;2.97;;
36205;SDS011;22242;48.796;9.930;2023-04-03T00:37:55;4.03;;;3.22;;
36205;SDS011;22242;48.796;9.930;2023-04-03T00:40:24;3.40;;;3.10;;
36205;SDS011;22242;48.796;9.930;2023-04-03T00:42:54;5.82;;;3.40;;
36205;SDS011;22242;48.796;9.930;2023-04-03T00:45:27;5.70;;;3.53;;
36205;SDS011;22242;48.796;9.930;2023-04-03T00:48:00;4.07;;;3.20;;
36205;SDS011;22242;48.796;9.930;2023-04-03T00:50:31;6.25;;;3.45;;
36205;SDS011;22242;48.796;9.930;2023-04-03T00:53:00;5.40;;;3.35;;
36205;SDS011;22242;48.796;9.930;2023-04-03T00:55:28;5.65;;;3.47;;
36205;SDS011;22242;48.796;9.930;2023-04-03T00:57:57;4.93;;;3.35;;
36205;SDS011;22242;48.796;9.930;2023-04-03T01:00:27;4.00;;;3.25;;
36205;SDS011;22242;48.796;9.930;2023-04-03T01:02:55;4.32;;;3.50;;
36205;SDS011;22242;48.796;9.930;2023-04-03T01:05:22;4.13;;;2.88;;
36205;SDS011;22242;48.796;9.930;2023-04-03T01:07:49;3.42;;;2.92;;
36205;SDS011;22242;48.796;9.930;2023-04-03T01:10:19;4.90;;;3.60;;
36205;SDS011;22242;48.796;9.930;2023-04-03T01:12:47;4.68;;;3.10;;
36205;SDS011;22242;48.796;9.930;2023-04-03T01:15:16;3.60;;;3.10;;
36205;SDS011;22242;48.796;9.930;2023-04-03T01:17:47;4.63;;;2.97;;
36205;SDS011;22242;48.796;9.930;2023-04-03T01:20:29;2.70;;;2.50;;
36205;SDS011;22242;48.796;9.930;2023-04-03T01:23:25;3.15;;;2.85;;
36205;SDS011;22242;48.796;9.930;2023-04-03T01:25:58;4.68;;;3.15;;
36205;SDS011;22242;48.796;9.930;2023-04-03T01:28:27;3.50;;;3.13;;
36205;SDS011;22242;48.796;9.930;2023-04-03T01:30:58;7.78;;;3.22;;
36205;SDS011;22242;48.796;9.930;2023-04-03T01:33:32;4.85;;;2.70;;
36205;SDS011;22242;48.796;9.930;2023-04-03T01:36:00;3.45;;;3.15;;
36205;SDS011;22242;48.796;9.930;2023-04-03T01:38:28;3.42;;;2.67;;
36205;SDS011;22242;48.796;9.930;2023-04-03T01:40:56;4.60;;;3.00;;
36205;SDS011;22242;48.796;9.930;2023-04-03T01:43:23;4.40;;;2.63;;
36205;SDS011;22242;48.796;9.930;2023-04-03T01:45:50;4.18;;;2.97;;
36205;SDS011;22242;48.796;9.930;2023-04-03T01:48:19;2.70;;;2.50;;
36205;SDS011;22242;48.796;9.930;2023-04-03T01:50:48;3.65;;;3.25;;
36205;SDS011;22242;48.796;9.930;2023-04-03T01:53:14;3.65;;;2.85;;
36205;SDS011;22242;48.796;9.930;2023-04-03T01:55:42;3.40;;;2.90;;
36205;SDS011;22242;48.796;9.930;2023-04-03T01:58:09;5.35;;;2.67;;
36205;SDS011;22242;48.796;9.930;2023-04-03T02:00:36;3.63;;;2.60;;
36205;SDS011;22242;48.796;9.930;2023-04-03T02:03:03;4.72;;;3.33;;
36205;SDS011;22242;48.796;9.930;2023-04-03T02:05:30;4.53;;;2.55;;
36205;SDS011;22242;48.796;9.930;2023-04-03T02:07:59;4.25;;;3.17;;
36205;SDS011;22242;48.796;9.930;2023-04-03T02:10:26;5.65;;;3.05;;
36205;SDS011;22242;48.796;9.930;2023-04-03T02:12:53;4.05;;;2.80;;
36205;SDS011;22242;48.796;9.930;2023-04-03T02:15:20;3.08;;;2.50;;
36205;SDS011;22242;48.796;9.930;2023-04-03T02:17:47;5.10;;;3.00;;
36205;SDS011;22242;48.796;9.930;2023-04-03T02:20:15;6.60;;;2.80;;
36205;SDS011;22242;48.796;9.930;2023-04-03T02:22:42;4.00;;;2.53;;
36205;SDS011;22242;48.796;9.930;2023-04-03T02:25:11;3.33;;;2.67;;
36205;SDS011;22242;48.796;9.930;2023-04-03T02:27:40;5.10;;;2.90;;
36205;SDS011;22242;48.796;9.930;2023-04-03T02:30:08;3.70;;;3.13;;
36205;SDS011;22242;48.796;9.930;2023-04-03T02:32:36;4.13;;;3.00;;
36205;SDS011;22242;48.796;9.930;2023-04-03T02:35:03;5.55;;;2.97;;
36205;SDS011;22242;48.796;9.930;2023-04-03T02:37:31;3.25;;;2.90;;
36205;SDS011;22242;48.796;9.930;2023-04-03T02:39:58;7.30;;;2.80;;
36205;SDS011;22242;48.796;9.930;2023-04-03T02:42:28;5.28;;;2.92;;
36205;SDS011;22242;48.796;9.930;2023-04-03T02:44:55;3.03;;;2.72;;
36205;SDS011;22242;48.796;9.930;2023-04-03T02:47:22;4.28;;;2.80;;
36205;SDS011;22242;48.796;9.930;2023-04-03T02:49:49;4.70;;;2.60;;
36205;SDS011;22242;48.796;9.930;2023-04-03T02:52:18;4.50;;;2.78;;
36205;SDS011;22242;48.796;9.930;2023-04-03T02:54:46;3.80;;;2.75;;
36205;SDS011;22242;48.796;9.930;2023-04-03T02:57:13;5.13;;;2.78;;
36205;SDS011;22242;48.796;9.930;2023-04-03T02:59:42;7.45;;;3.22;;
36205;SDS011;22242;48.796;9.930;2023-04-03T03:02:10;3.33;;;2.55;;
36205;SDS011;22242;48.796;9.930;2023-04-03T03:04:37;4.80;;;2.95;;
36205;SDS011;22242;48.796;9.930;2023-04-03T03:07:05;5.15;;;2.90;;
36205;SDS011;22242;48.796;9.930;2023-04-03T03:09:32;4.63;;;2.80;;
36205;SDS011;22242;48.796;9.930;2023-04-03T03:12:00;2.63;;;2.42;;
36205;SDS011;22242;48.796;9.930;2023-04-03T03:14:28;3.35;;;3.05;;
36205;SDS011;22242;48.796;9.930;2023-04-03T03:16:57;6.18;;;2.92;;
36205;SDS011;22242;48.796;9.930;2023-04-03T03:19:24;3.63;;;2.38;;
36205;SDS011;22242;48.796;9.930;2023-04-03T03:21:51;3.35;;;3.05;;
36205;SDS011;22242;48.796;9.930;2023-04-03T03:24:18;3.60;;;2.60;;
36205;SDS011;22242;48.796;9.930;2023-04-03T03:26:46;3.85;;;2.67;;
36205;SDS011;22242;48.796;9.930;2023-04-03T03:29:13;2.90;;;2.50;;
36205;SDS011;22242;48.796;9.930;2023-04-03T03:31:41;6.60;;;2.70;;
36205;SDS011;22242;48.796;9.930;2023-04-03T03:34:09;4.38;;;3.00;;
36205;SDS011;22242;48.796;9.930;2023-04-03T03:36:37;2.90;;;2.60;;
36205;SDS011;22242;48.796;9.930;2023-04-03T03:39:04;6.53;;;2.80;;
36205;SDS011;22242;48.796;9.930;2023-04-03T03:41:31;4.03;;;2.63;;
36205;SDS011;22242;48.796;9.930;2023-04-03T03:43:59;3.92;;;2.45;;
36205;SDS011;22242;48.796;9.930;2023-04-03T03:46:29;3.78;;;2.63;;
36205;SDS011;22242;48.796;9.930;2023-04-03T03:48:55;3.88;;;2.50;;
36205;SDS011;22242;48.796;9.930;2023-04-03T03:51:24;2.80;;;2.50;;
36205;SDS011;22242;48.796;9.930;2023-04-03T03:53:51;4.50;;;2.63;;
36205;SDS011;22242;48.796;9.930;2023-04-03T03:56:19;3.00;;;2.67;;
36205;SDS011;22242;48.796;9.930;2023-04-03T03:58:46;3.72;;;2.80;;
36205;SDS011;22242;48.796;9.930;2023-04-03T04:01:14;7.40;;;2.97;;
36205;SDS011;22242;48.796;9.930;2023-04-03T04:03:46;3.10;;;2.55;;
36205;SDS011;22242;48.796;9.930;2023-04-03T04:06:17;4.95;;;3.00;;
36205;SDS011;22242;48.796;9.930;2023-04-03T04:08:46;4.63;;;3.30;;
36205;SDS011;22242;48.796;9.930;2023-04-03T04:11:14;4.13;;;2.58;;
36205;SDS011;22242;48.796;9.930;2023-04-03T04:13:43;4.05;;;3.00;;
36205;SDS011;22242;48.796;9.930;2023-04-03T04:16:12;3.50;;;2.78;;
36205;SDS011;22242;48.796;9.930;2023-04-03T04:18:39;2.78;;;2.58;;
36205;SDS011;22242;48.796;9.930;2023-04-03T04:21:06;2.83;;;2.63;;
36205;SDS011;22242;48.796;9.930;2023-04-03T04:23:33;6.93;;;3.15;;
36205;SDS011;22242;48.796;9.930;2023-04-03T04:26:02;4.10;;;2.88;;
36205;SDS011;22242;48.796;9.930;2023-04-03T04:28:32;6.93;;;3.50;;
36205;SDS011;22242;48.796;9.930;2023-04-03T04:31:01;3.22;;;2.50;;
36205;SDS011;22242;48.796;9.930;2023-04-03T04:33:28;2.80;;;2.60;;
36205;SDS011;22242;48.796;9.930;2023-04-03T04:35:58;3.97;;;3.00;;
36205;SDS011;22242;48.796;9.930;2023-04-03T04:38:25;4.15;;;3.42;;
36205;SDS011;22242;48.796;9.930;2023-04-03T04:40:53;4.88;;;3.17;;
36205;SDS011;22242;48.796;9.930;2023-04-03T04:43:21;7.10;;;4.05;;
36205;SDS011;22242;48.796;9.930;2023-04-03T04:45:59;19.92;;;8.77;;
36205;SDS011;22242;48.796;9.930;2023-04-03T04:48:29;29.30;;;11.27;;
36205;SDS011;22242;48.796;9.930;2023-04-03T04:50:56;18.30;;;9.55;;
36205;SDS011;22242;48.796;9.930;2023-04-03T04:53:22;10.73;;;5.82;;
36205;SDS011;22242;48.796;9.930;2023-04-03T04:55:50;8.90;;;5.00;;
36205;SDS011;22242;48.796;9.930;2023-04-03T04:58:17;4.13;;;3.25;;
36205;SDS011;22242;48.796;9.930;2023-04-03T05:00:47;4.97;;;3.33;;
36205;SDS011;22242;48.796;9.930;2023-04-03T05:03:15;5.45;;;4.15;;
36205;SDS011;22242;48.796;9.930;2023-04-03T05:05:43;4.35;;;3.50;;
36205;SDS011;22242;48.796;9.930;2023-04-03T05:08:10;6.93;;;4.00;;
36205;SDS011;22242;48.796;9.930;2023-04-03T05:10:40;5.85;;;3.60;;
36205;SDS011;22242;48.796;9.930;2023-04-03T05:13:09;6.05;;;3.65;;
36205;SDS011;22242;48.796;9.930;2023-04-03T05:15:36;4.45;;;3.22;;
36205;SDS011;22242;48.796;9.930;2023-04-03T05:18:04;4.60;;;3.50;;
36205;SDS011;22242;48.796;9.930;2023-04-03T05:20:32;5.40;;;3.65;;
36205;SDS011;22242;48.796;9.930;2023-04-03T05:22:59;3.72;;;3.30;;
36205;SDS011;22242;48.796;9.930;2023-04-03T05:25:26;5.53;;;3.83;;
36205;SDS011;22242;48.796;9.930;2023-04-03T05:27:55;8.38;;;4.60;;
36205;SDS011;22242;48.796;9.930;2023-04-03T05:30:22;21.48;;;8.93;;
36205;SDS011;22242;48.796;9.930;2023-04-03T05:32:50;29.45;;;10.68;;
36205;SDS011;22242;48.796;9.930;2023-04-03T05:35:24;16.85;;;6.88;;
36205;SDS011;22242;48.796;9.930;2023-04-03T05:37:55;4.28;;;3.05;;
36205;SDS011;22242;48.796;9.930;2023-04-03T05:40:22;4.93;;;2.97;;
36205;SDS011;22242;48.796;9.930;2023-04-03T05:42:52;3.67;;;2.92;;
36205;SDS011;22242;48.796;9.930;2023-04-03T05:45:22;4.00;;;2.95;;
36205;SDS011;22242;48.796;9.930;2023-04-03T05:47:50;2.95;;;2.65;;
36205;SDS011;22242;48.796;9.930;2023-04-03T05:50:17;6.35;;;3.03;;
36205;SDS011;22242;48.796;9.930;2023-04-03T05:52:45;4.00;;;2.92;;
36205;SDS011;22242;48.796;9.930;2023-04-03T05:55:16;5.07;;;3.10;;
36205;SDS011;22242;48.796;9.930;2023-04-03T05:57:43;3.47;;;3.15;;
36205;SDS011;22242;48.796;9.930;2023-04-03T06:00:12;3.33;;;3.00;;
36205;SDS011;22242;48.796;9.930;2023-04-03T06:02:42;3.47;;;2.70;;
